Time;durP1;ratioP1;P1;durP2;ratioP2;P2;SDS_P1;SDS_P2;PMS_P1;PMS_P2;Temp;Humidity;BMP_temperature;BMP_pressure;BME280_temperature;BME280_humidity;BME280_pressure;Samples;Min_cycle;Max_cycle;Signal;HPM_P1;HPM_P2
2022/05/09 00:00:20;;;;;;;29.42;6.70;;;;;;;12.04;100.00;101732.38;5063839;28;20052;-82
2022/05/09 00:02:48;;;;;;;24.98;7.53;;;;;;;11.80;100.00;101715.50;5071577;28;20482;-82
2022/05/09 00:05:18;;;;;;;27.20;7.80;;;;;;;11.80;100.00;101714.66;5072154;28;20059;-82
2022/05/09 00:07:45;;;;;;;24.58;7.43;;;;;;;11.96;100.00;101716.84;5073960;28;20052;-82
2022/05/09 00:10:16;;;;;;;25.98;5.25;;;;;;;12.18;100.00;101725.88;5065442;28;20557;-82
2022/05/09 00:12:43;;;;;;;22.63;4.95;;;;;;;12.14;100.00;101712.81;5072244;28;20048;-82
2022/05/09 00:15:11;;;;;;;21.95;6.45;;;;;;;12.20;100.00;101718.81;5070959;28;20045;-82
2022/05/09 00:17:39;;;;;;;33.55;8.00;;;;;;;12.22;100.00;101710.00;5067179;28;20055;-82
2022/05/09 00:20:06;;;;;;;26.98;6.55;;;;;;;11.99;100.00;101717.66;5070616;28;20790;-82
2022/05/09 00:22:51;;;;;;;27.83;7.00;;;;;;;12.13;100.00;101723.41;5071175;28;20470;-82
2022/05/09 00:25:20;;;;;;;23.52;8.52;;;;;;;11.99;100.00;101720.28;5072115;28;20486;-81
2022/05/09 00:27:47;;;;;;;22.83;5.95;;;;;;;12.06;100.00;101667.56;5072966;28;20439;-82
2022/05/09 00:30:15;;;;;;;22.92;6.10;;;;;;;12.24;100.00;101689.81;5072312;28;20061;-82
2022/05/09 00:32:41;;;;;;;20.13;5.25;;;;;;;12.23;100.00;101703.81;5070555;28;20060;-81
2022/05/09 00:35:10;;;;;;;20.60;5.68;;;;;;;12.27;100.00;101694.09;5070109;28;20053;-82
2022/05/09 00:37:37;;;;;;;24.27;6.65;;;;;;;12.32;100.00;101697.44;5071159;28;20049;-82
2022/05/09 00:40:08;;;;;;;32.25;7.20;;;;;;;12.07;100.00;101700.78;5071675;28;20081;-82
2022/05/09 00:42:44;;;;;;;24.50;6.53;;;;;;;12.02;100.00;101697.41;5071736;28;20053;-82
2022/05/09 00:45:13;;;;;;;32.15;9.00;;;;;;;11.68;100.00;101693.06;5071642;28;20056;-82
2022/05/09 00:47:40;;;;;;;21.23;6.32;;;;;;;11.99;100.00;101675.66;5071520;28;20066;-81
2022/05/09 00:50:09;;;;;;;24.42;7.47;;;;;;;11.82;100.00;101681.34;5071825;28;20055;-82
2022/05/09 00:52:52;;;;;;;28.00;7.13;;;;;;;11.85;100.00;101678.66;5071074;28;20055;-82
2022/05/09 00:55:27;;;;;;;24.37;6.27;;;;;;;12.17;100.00;101682.16;5071002;28;20048;-82
2022/05/09 00:57:57;;;;;;;29.60;7.03;;;;;;;12.06;100.00;101680.69;5070382;28;20138;-82
2022/05/09 01:00:24;;;;;;;24.52;6.50;;;;;;;11.90;100.00;101668.91;5069782;28;20048;-82
2022/05/09 01:03:40;;;;;;;31.15;6.43;;;;;;;12.05;100.00;101667.63;5054195;28;20057;-82
2022/05/09 01:06:08;;;;;;;24.73;5.85;;;;;;;12.21;100.00;101668.88;5067008;28;20052;-82
2022/05/09 01:08:35;;;;;;;22.00;6.10;;;;;;;12.22;100.00;101660.13;5052576;28;20045;-82
2022/05/09 01:11:09;;;;;;;19.05;5.95;;;;;;;12.25;100.00;101651.28;5055690;28;20398;-81
2022/05/09 01:13:43;;;;;;;20.88;5.90;;;;;;;12.22;100.00;101654.88;5051238;28;20636;-82
2022/05/09 01:16:11;;;;;;;17.65;4.80;;;;;;;12.20;100.00;101655.78;5050282;28;20048;-81
2022/05/09 01:18:38;;;;;;;22.38;6.40;;;;;;;11.92;100.00;101651.38;5063865;28;20048;-82
2022/05/09 01:21:30;;;;;;;28.75;7.00;;;;;;;12.17;100.00;101656.75;5071270;28;20056;-82
2022/05/09 01:23:57;;;;;;;17.38;5.03;;;;;;;12.18;100.00;101644.47;5052807;28;20049;-82
2022/05/09 01:26:24;;;;;;;20.80;6.63;;;;;;;12.02;100.00;101646.69;5070340;28;20044;-81
2022/05/09 01:28:51;;;;;;;22.88;6.03;;;;;;;12.08;100.00;101649.16;5069889;28;20052;-82
2022/05/09 01:31:18;;;;;;;18.08;5.35;;;;;;;12.10;100.00;101637.69;5069499;28;20041;-82
2022/05/09 01:33:51;;;;;;;18.23;5.47;;;;;;;12.19;100.00;101633.09;5070051;28;20052;-81
2022/05/09 01:36:25;;;;;;;20.25;6.18;;;;;;;12.21;100.00;101637.38;5070092;28;20745;-81
2022/05/09 01:38:55;;;;;;;;;;;;;;;12.57;100.00;101631.91;5054453;28;20498;-81
2022/05/09 01:41:23;;;;;;;17.05;6.45;;;;;;;12.21;100.00;101639.16;5059059;28;19921;-80
2022/05/09 01:43:52;;;;;;;28.85;8.32;;;;;;;12.26;100.00;101634.63;5070259;28;20131;-81
2022/05/09 01:46:21;;;;;;;25.58;7.18;;;;;;;12.01;100.00;101614.34;5070546;28;20135;-82
2022/05/09 01:51:34;;;;;;;16.88;4.90;;;;;;;12.34;100.00;101619.47;5060921;28;20399;-81
2022/05/09 01:54:01;;;;;;;21.58;6.03;;;;;;;12.24;100.00;101611.03;5070903;28;20132;-82
2022/05/09 01:56:34;;;;;;;27.67;7.43;;;;;;;12.45;100.00;101606.88;5071003;28;20127;-82
2022/05/09 01:59:02;;;;;;;19.70;6.60;;;;;;;12.48;100.00;101616.44;5071453;28;20055;-82
2022/05/09 02:01:35;;;;;;;17.13;6.03;;;;;;;12.31;100.00;101609.94;5064282;28;20487;-82
2022/05/09 02:04:02;;;;;;;;;;;;;;;12.73;100.00;101608.63;5097509;28;20049;-82
2022/05/09 02:06:29;;;;;;;24.55;5.35;;;;;;;12.60;100.00;101602.03;5069901;28;20366;-82
2022/05/09 02:08:56;;;;;;;24.33;5.93;;;;;;;12.40;100.00;101597.44;5069327;28;20048;-82
2022/05/09 02:11:23;;;;;;;16.42;5.05;;;;;;;12.11;100.00;101588.66;5068881;28;20052;-82
2022/05/09 02:13:50;;;;;;;24.27;7.78;;;;;;;12.00;100.00;101575.03;5069860;28;20051;-82
2022/05/09 02:16:17;;;;;;;19.60;6.03;;;;;;;12.23;100.00;101585.66;5054157;28;20141;-82
2022/05/09 02:18:43;;;;;;;18.80;6.10;;;;;;;12.40;100.00;101579.06;5051189;28;20080;-82
2022/05/09 02:21:10;;;;;;;32.30;7.30;;;;;;;12.19;100.00;101575.34;5058024;28;20039;-81
2022/05/09 02:23:37;;;;;;;19.30;6.60;;;;;;;12.34;100.00;101575.72;5074320;28;20048;-82
2022/05/09 02:26:04;;;;;;;25.50;7.55;;;;;;;12.25;100.00;101562.88;5074309;28;20080;-82
2022/05/09 02:28:31;;;;;;;25.35;9.13;;;;;;;11.95;100.00;101569.91;5074073;28;20048;-83
2022/05/09 02:30:58;;;;;;;32.72;8.90;;;;;;;11.89;100.00;101549.06;5073253;28;20048;-83
2022/05/09 02:33:25;;;;;;;26.90;7.03;;;;;;;11.72;100.00;101558.31;5072876;28;20056;-82
2022/05/09 02:35:52;;;;;;;21.95;6.32;;;;;;;11.89;100.00;101546.44;5068387;28;20047;-82
2022/05/09 02:38:19;;;;;;;22.58;6.30;;;;;;;12.03;100.00;101541.66;5055201;28;20055;-82
2022/05/09 02:40:46;;;;;;;47.63;10.50;;;;;;;11.75;100.00;101557.34;5056695;28;20041;-83
2022/05/09 02:43:13;;;;;;;31.42;9.05;;;;;;;11.58;100.00;101547.38;5073479;28;20052;-82
2022/05/09 02:45:40;;;;;;;35.63;9.13;;;;;;;11.49;100.00;101560.72;5072961;28;20052;-82
2022/05/09 02:48:08;;;;;;;34.03;10.23;;;;;;;11.69;100.00;101552.31;5073021;28;20044;-81
2022/05/09 02:50:35;;;;;;;23.63;5.78;;;;;;;11.93;100.00;101546.34;5072360;28;20045;-82
2022/05/09 02:53:03;;;;;;;28.73;6.53;;;;;;;11.81;100.00;101553.69;5073865;28;20053;-82
2022/05/09 02:55:31;;;;;;;22.98;6.70;;;;;;;11.77;100.00;101534.53;5074762;28;20498;-83
2022/05/09 02:58:00;;;;;;;30.95;7.03;;;;;;;11.86;100.00;101530.78;5073642;28;20076;-83
2022/05/09 03:00:29;;;;;;;21.38;6.82;;;;;;;12.13;100.00;101526.50;5073941;28;20047;-83
2022/05/09 03:05:44;;;;;;;21.05;5.90;;;;;;;12.04;100.00;101511.91;5073500;28;20056;-83
2022/05/09 03:08:13;;;;;;;32.35;7.85;;;;;;;11.64;100.00;101506.97;5073250;28;20056;-83
2022/05/09 03:10:39;;;;;;;21.90;5.63;;;;;;;11.88;100.00;101493.13;5071968;28;20059;-83
2022/05/09 03:13:08;;;;;;;27.95;6.75;;;;;;;11.70;100.00;101489.25;5072603;28;20071;-83
2022/05/09 03:15:38;;;;;;;34.80;8.43;;;;;;;11.50;100.00;101502.97;5072984;28;20383;-83
2022/05/09 03:18:05;;;;;;;29.80;9.52;;;;;;;11.65;100.00;101472.84;5072796;28;20554;-83
2022/05/09 03:20:32;;;;;;;27.67;7.55;;;;;;;11.73;100.00;101480.47;5072597;28;20094;-83
2022/05/09 03:22:59;;;;;;;26.10;8.68;;;;;;;11.78;100.00;101492.53;5073791;28;20406;-82
2022/05/09 03:25:26;;;;;;;34.60;9.50;;;;;;;11.89;100.00;101471.19;5072095;28;20058;-82
2022/05/09 03:27:53;;;;;;;25.45;8.13;;;;;;;12.12;100.00;101475.75;5074415;28;20044;-82
2022/05/09 03:30:20;;;;;;;31.83;10.65;;;;;;;11.91;100.00;101464.16;5055422;28;20053;-82
2022/05/09 03:32:47;;;;;;;32.22;7.88;;;;;;;12.10;100.00;101453.94;5089618;28;20509;-82
2022/05/09 03:35:17;;;;;;;19.83;6.13;;;;;;;12.36;100.00;101468.00;5073153;28;20631;-82
2022/05/09 03:37:44;;;;;;;30.58;8.93;;;;;;;11.95;100.00;101452.69;5072020;28;20052;-83
2022/05/09 03:40:11;;;;;;;28.52;9.57;;;;;;;11.84;100.00;101452.13;5074207;28;20052;-83
2022/05/09 03:42:39;;;;;;;41.03;10.82;;;;;;;11.81;100.00;101428.63;5073987;28;20127;-82
2022/05/09 03:45:07;;;;;;;27.10;9.02;;;;;;;12.12;100.00;101444.25;5064684;28;20127;-82
2022/05/09 03:47:34;;;;;;;20.67;7.55;;;;;;;12.24;100.00;101429.03;5069930;28;20051;-82
2022/05/09 03:50:00;;;;;;;20.63;7.25;;;;;;;12.25;100.00;101433.34;5072477;28;20487;-83
2022/05/09 03:52:28;;;;;;;30.30;10.35;;;;;;;12.11;100.00;101421.56;5072373;28;20482;-83
2022/05/09 03:54:57;;;;;;;33.53;11.55;;;;;;;11.96;100.00;101404.53;5074334;28;20294;-83
2022/05/09 03:57:24;;;;;;;27.33;8.85;;;;;;;12.45;100.00;101422.19;5072022;28;20044;-83
2022/05/09 03:59:51;;;;;;;37.42;12.30;;;;;;;11.89;100.00;101402.97;5071804;28;20050;-83
2022/05/09 04:02:18;;;;;;;38.60;11.77;;;;;;;11.89;100.00;101418.72;5060881;28;20056;-82
2022/05/09 04:04:45;;;;;;;35.78;11.45;;;;;;;12.03;100.00;101402.56;5087602;28;20057;-82
2022/05/09 04:07:12;;;;;;;24.23;8.20;;;;;;;12.07;100.00;101413.81;5072779;28;20074;-83
2022/05/09 04:09:38;;;;;;;28.95;8.73;;;;;;;12.22;100.00;101402.81;5074244;28;20401;-83
2022/05/09 04:12:06;;;;;;;33.53;8.60;;;;;;;12.13;100.00;101396.09;5070783;28;20048;-83
2022/05/09 04:17:20;;;;;;;21.55;7.22;;;;;;;12.44;100.00;101397.66;5057601;28;20048;-83
2022/05/09 04:19:47;;;;;;;38.08;11.85;;;;;;;11.92;100.00;101395.03;5072324;28;20060;-83
2022/05/09 04:22:14;;;;;;;23.55;7.55;;;;;;;12.25;100.00;101360.72;5072522;28;20056;-83
2022/05/09 04:24:43;;;;;;;21.00;8.77;;;;;;;12.43;100.00;101384.59;5072159;28;20044;-83
2022/05/09 04:27:10;;;;;;;33.83;10.38;;;;;;;12.23;100.00;101391.38;5072315;28;20079;-83
2022/05/09 04:29:36;;;;;;;23.10;8.07;;;;;;;12.44;100.00;101387.16;5072338;28;20048;-83
2022/05/09 04:32:04;;;;;;;30.60;11.68;;;;;;;12.24;100.00;101379.13;5071192;28;20051;-83
2022/05/09 04:34:31;;;;;;;31.77;9.65;;;;;;;12.37;100.00;101353.31;5072422;28;20044;-82
2022/05/09 04:36:58;;;;;;;33.78;12.43;;;;;;;12.30;100.00;101376.28;5072460;28;20074;-82
2022/05/09 04:39:25;;;;;;;27.02;9.70;;;;;;;12.51;100.00;101372.06;5069431;28;20128;-82
2022/05/09 04:41:52;;;;;;;28.27;12.18;;;;;;;12.17;100.00;101367.13;5062399;28;20049;-82
2022/05/09 04:44:20;;;;;;;26.95;9.95;;;;;;;12.28;100.00;101378.09;5070507;28;20054;-84
2022/05/09 04:46:47;;;;;;;25.52;9.73;;;;;;;12.53;100.00;101365.81;5071978;28;20410;-83
2022/05/09 04:49:13;;;;;;;31.05;11.02;;;;;;;12.56;100.00;101356.13;5071645;28;20099;-83
2022/05/09 04:51:40;;;;;;;24.02;8.35;;;;;;;12.41;100.00;101355.78;5071220;28;20066;-83
2022/05/09 04:54:07;;;;;;;24.48;9.52;;;;;;;12.40;100.00;101338.28;5071982;28;20402;-83
2022/05/09 04:56:34;;;;;;;36.50;12.10;;;;;;;12.10;100.00;101348.09;5056484;28;20433;-83
2022/05/09 04:59:01;;;;;;;24.08;9.25;;;;;;;12.51;100.00;101349.25;5050897;28;20425;-83
2022/05/09 05:01:27;;;;;;;25.67;9.93;;;;;;;12.67;100.00;101360.06;5059137;28;20402;-83
2022/05/09 05:03:54;;;;;;;30.67;12.70;;;;;;;12.32;100.00;101348.19;5065054;28;20048;-83
2022/05/09 05:06:21;;;;;;;25.88;10.00;;;;;;;12.63;100.00;101349.75;5067957;28;20048;-83
2022/05/09 05:08:48;;;;;;;25.58;11.50;;;;;;;12.37;100.00;101354.16;5065430;28;20049;-82
2022/05/09 05:11:15;;;;;;;33.20;11.73;;;;;;;12.35;100.00;101354.19;5058604;28;20044;-83
2022/05/09 05:13:41;;;;;;;23.02;10.50;;;;;;;12.62;100.00;101363.78;5070488;28;20054;-83
2022/05/09 05:16:08;;;;;;;26.40;10.15;;;;;;;12.58;100.00;101363.03;5070967;28;20048;-83
2022/05/09 05:18:35;;;;;;;23.23;9.32;;;;;;;12.63;100.00;101320.84;5070836;28;20052;-83
2022/05/09 05:21:10;;;;;;;18.55;9.38;;;;;;;12.98;100.00;101353.69;5066422;28;20048;-83
2022/05/09 05:23:38;;;;;;;24.30;10.13;;;;;;;12.68;100.00;101361.81;5063611;28;20056;-82
2022/05/09 05:26:06;;;;;;;19.60;8.80;;;;;;;12.89;100.00;101354.03;5063589;28;20084;-83
2022/05/09 05:28:33;;;;;;;20.63;8.73;;;;;;;13.07;100.00;101357.75;5066681;28;20052;-82
2022/05/09 05:31:18;;;;;;;15.88;8.13;;;;;;;12.65;100.00;101355.81;5060571;28;20052;-83
2022/05/09 05:33:46;;;;;;;28.65;10.93;;;;;;;12.40;100.00;101375.06;5062171;28;20491;-82
2022/05/09 05:36:14;;;;;;;21.63;8.63;;;;;;;12.93;100.00;101370.56;5060753;28;20056;-83
2022/05/09 05:38:43;;;;;;;22.50;8.68;;;;;;;12.72;100.00;101337.13;5058192;28;20053;-82
2022/05/09 05:41:10;;;;;;;19.63;9.27;;;;;;;12.80;100.00;101371.00;5060486;28;20056;-82
2022/05/09 05:43:37;;;;;;;23.48;9.75;;;;;;;12.91;100.00;101358.31;5060628;28;20058;-82
2022/05/09 05:46:03;;;;;;;17.67;6.95;;;;;;;13.07;100.00;101358.59;5063630;28;20048;-82
2022/05/09 05:48:30;;;;;;;26.50;9.27;;;;;;;12.91;100.00;101363.59;5063451;28;20498;-83
2022/05/09 05:50:57;;;;;;;21.27;8.25;;;;;;;13.33;100.00;101348.84;5065640;28;20145;-83
2022/05/09 05:53:24;;;;;;;24.20;10.07;;;;;;;12.90;100.00;101316.31;5062168;28;20418;-83
2022/05/09 05:55:50;;;;;;;19.88;8.70;;;;;;;13.43;100.00;101357.25;5060169;28;20048;-83
2022/05/09 05:58:17;;;;;;;21.02;8.82;;;;;;;12.98;100.00;101352.81;5060057;28;20044;-82
2022/05/09 06:00:44;;;;;;;17.50;8.85;;;;;;;12.92;100.00;101346.03;5058711;28;20056;-83
2022/05/09 06:03:11;;;;;;;19.83;8.00;;;;;;;13.26;100.00;101340.34;5060144;28;20049;-83
2022/05/09 06:05:37;;;;;;;23.02;9.52;;;;;;;13.10;100.00;101349.72;5064982;28;20051;-83
2022/05/09 06:08:05;;;;;;;15.93;7.68;;;;;;;13.03;100.00;101327.22;5058249;28;20466;-83
2022/05/09 06:10:31;;;;;;;23.40;9.23;;;;;;;13.42;100.00;101340.63;5060416;28;20055;-83
2022/05/09 06:13:02;;;;;;;20.45;9.38;;;;;;;13.22;100.00;101336.09;5062847;28;20471;-83
2022/05/09 06:15:29;;;;;;;17.58;7.43;;;;;;;13.43;100.00;101321.28;5059884;28;20052;-84
2022/05/09 06:17:57;;;;;;;17.63;7.57;;;;;;;13.53;100.00;101344.59;5066327;28;20048;-82
2022/05/09 06:20:26;;;;;;;19.67;8.00;;;;;;;13.19;100.00;101302.06;5066458;28;20049;-83
2022/05/09 06:22:56;;;;;;;19.27;8.00;;;;;;;13.42;100.00;101310.81;5064788;28;20049;-84
2022/05/09 06:25:24;;;;;;;16.95;7.07;;;;;;;13.50;100.00;101319.28;5066646;28;20082;-83
2022/05/09 06:27:51;;;;;;;14.98;5.78;;;;;;;13.97;100.00;101337.50;5063185;28;20070;-83
2022/05/09 06:30:19;;;;;;;16.80;6.55;;;;;;;13.52;100.00;101299.00;5064592;28;20127;-83
2022/05/09 06:32:48;;;;;;;15.82;6.55;;;;;;;13.51;100.00;101318.38;5063268;28;20120;-83
2022/05/09 06:35:23;;;;;;;21.38;6.05;;;;;;;13.81;100.00;101328.53;5064850;28;20048;-83
2022/05/09 06:38:00;;;;;;;22.30;8.00;;;;;;;13.12;100.00;101290.09;5062530;28;20053;-83
2022/05/09 06:40:29;;;;;;;17.55;7.75;;;;;;;13.31;100.00;101313.88;5056848;28;20048;-83
2022/05/09 06:42:56;;;;;;;20.60;6.43;;;;;;;13.68;100.00;101333.44;5065268;28;20037;-83
2022/05/09 06:45:25;;;;;;;16.35;6.43;;;;;;;13.84;100.00;101329.25;5059157;28;20055;-83
2022/05/09 06:47:55;;;;;;;21.33;7.45;;;;;;;13.77;100.00;101325.16;5060196;28;20103;-83
2022/05/09 06:50:32;;;;;;;16.85;7.47;;;;;;;13.53;100.00;101334.94;5063526;28;20101;-83
2022/05/09 06:53:01;;;;;;;16.02;7.65;;;;;;;13.38;100.00;101315.34;5064937;28;20044;-83
2022/05/09 06:55:44;;;;;;;16.42;6.13;;;;;;;13.61;100.00;101289.88;5061568;28;20052;-83
2022/05/09 06:58:14;;;;;;;20.75;7.35;;;;;;;13.73;100.00;101326.22;5068625;28;20071;-84
2022/05/09 07:00:41;;;;;;;19.75;7.90;;;;;;;13.32;100.00;101299.81;5065778;28;20123;-83
2022/05/09 07:03:08;;;;;;;15.68;6.78;;;;;;;13.68;100.00;101305.34;5068682;28;20127;-83
2022/05/09 07:05:38;;;;;;;33.67;26.48;;;;;;;13.61;100.00;101300.41;5070406;28;20131;-83
2022/05/09 07:08:06;;;;;;;23.02;7.10;;;;;;;13.68;100.00;101299.25;5075236;28;20596;-83
2022/05/09 07:10:33;;;;;;;16.38;6.97;;;;;;;14.05;100.00;101308.22;5075165;28;20055;-83
2022/05/09 07:13:00;;;;;;;15.38;6.20;;;;;;;14.27;100.00;101294.97;5075989;28;20051;-83
2022/05/09 07:15:29;;;;;;;14.82;5.40;;;;;;;14.21;100.00;101280.28;5075461;28;20045;-83
2022/05/09 07:17:58;;;;;;;17.75;5.68;;;;;;;13.96;100.00;101267.34;5074034;28;20059;-83
2022/05/09 07:20:30;;;;;;;18.90;6.60;;;;;;;13.93;100.00;101263.97;5074793;28;20049;-83
2022/05/09 07:23:05;;;;;;;14.48;5.30;;;;;;;14.40;100.00;101306.66;5075411;28;20059;-83
2022/05/09 07:25:32;;;;;;;13.20;5.15;;;;;;;14.42;100.00;101285.53;5073577;28;20048;-83
2022/05/09 07:27:58;;;;;;;14.07;6.05;;;;;;;14.14;100.00;101284.09;5088216;28;20490;-82
2022/05/09 07:30:25;;;;;;;16.25;5.13;;;;;;;14.35;100.00;101260.38;5055385;28;20135;-83
2022/05/09 07:32:52;;;;;;;13.00;5.28;;;;;;;14.61;100.00;101273.25;5073769;28;20044;-83
2022/05/09 07:35:20;;;;;;;26.45;7.65;;;;;;;14.49;100.00;101273.78;5074054;28;20057;-84
2022/05/09 07:37:47;;;;;;;20.65;7.00;;;;;;;14.58;100.00;101283.09;5074698;28;20098;-83
2022/05/09 07:40:16;;;;;;;14.82;6.18;;;;;;;14.49;100.00;101275.56;5075684;28;20440;-83
2022/05/09 07:42:44;;;;;;;15.75;6.68;;;;;;;14.29;100.00;101250.09;5075383;28;20571;-83
2022/05/09 07:45:14;;;;;;;21.85;7.30;;;;;;;14.40;100.00;101255.78;5075698;28;20045;-84
2022/05/09 07:47:41;;;;;;;17.23;5.35;;;;;;;14.41;100.00;101232.00;5075591;28;20135;-83
2022/05/09 07:50:10;;;;;;;19.13;6.88;;;;;;;14.15;100.00;101240.22;5074886;28;20051;-83
2022/05/09 07:52:37;;;;;;;20.02;6.57;;;;;;;14.13;100.00;101248.19;5074739;28;20063;-84
2022/05/09 07:55:05;;;;;;;19.85;5.85;;;;;;;14.33;100.00;101231.47;5073688;28;20057;-83
2022/05/09 07:57:32;;;;;;;20.55;6.70;;;;;;;14.21;100.00;101230.25;5075011;28;20441;-83
2022/05/09 07:59:59;;;;;;;17.65;5.75;;;;;;;14.33;100.00;101234.13;5075008;28;20102;-83
2022/05/09 08:02:27;;;;;;;15.15;6.03;;;;;;;14.51;100.00;101229.78;5074417;28;20049;-83
2022/05/09 08:04:54;;;;;;;16.80;5.85;;;;;;;14.39;100.00;101244.34;5074964;28;20075;-83
2022/05/09 08:07:21;;;;;;;15.65;5.43;;;;;;;14.46;100.00;101234.41;5074176;28;20091;-83
2022/05/09 08:09:48;;;;;;;15.35;5.50;;;;;;;14.57;100.00;101218.09;5074874;28;20071;-83
2022/05/09 08:12:15;;;;;;;19.38;6.60;;;;;;;14.38;100.00;101215.47;5074602;28;20045;-83
2022/05/09 08:14:43;;;;;;;17.17;6.32;;;;;;;14.61;100.00;101253.97;5075069;28;20132;-83
2022/05/09 08:17:10;;;;;;;20.27;6.80;;;;;;;14.30;100.00;101231.59;5073732;28;20048;-83
2022/05/09 08:19:38;;;;;;;18.17;5.15;;;;;;;14.52;100.00;101212.19;5074035;28;20131;-83
2022/05/09 08:22:10;;;;;;;17.67;6.82;;;;;;;13.98;100.00;101201.47;5074615;28;20044;-83
2022/05/09 08:24:42;;;;;;;20.92;7.93;;;;;;;13.77;100.00;101175.16;5074610;28;20040;-83
2022/05/09 08:27:09;;;;;;;18.02;6.03;;;;;;;14.03;100.00;101173.16;5074682;28;20449;-83
2022/05/09 08:29:36;;;;;;;20.13;7.25;;;;;;;14.17;100.00;101188.34;5074278;28;20045;-83
2022/05/09 08:32:03;;;;;;;22.90;7.85;;;;;;;14.10;100.00;101177.22;5073929;28;20504;-83
2022/05/09 08:34:30;;;;;;;16.17;6.65;;;;;;;14.51;100.00;101202.59;5073855;28;20048;-83
2022/05/09 08:36:57;;;;;;;17.77;7.50;;;;;;;14.15;100.00;101184.91;5074758;28;20402;-83
2022/05/09 08:39:26;;;;;;;22.98;8.38;;;;;;;14.36;100.00;101217.28;5074154;28;20058;-83
2022/05/09 08:42:07;;;;;;;16.52;6.80;;;;;;;14.48;100.00;101208.84;5074120;28;20052;-83
2022/05/09 08:44:40;;;;;;;21.30;8.18;;;;;;;14.37;100.00;101219.88;5074233;28;20055;-84
2022/05/09 08:47:29;;;;;;;22.35;8.05;;;;;;;14.54;100.00;101216.47;5072499;28;20052;-83
2022/05/09 08:50:27;;;;;;;21.75;8.13;;;;;;;14.35;100.00;101195.38;5072343;28;20053;-83
2022/05/09 08:53:05;;;;;;;22.35;8.88;;;;;;;14.64;100.00;101211.63;5053864;28;20048;-83
2022/05/09 08:55:38;;;;;;;24.17;8.88;;;;;;;14.34;100.00;101182.28;5056380;28;20053;-83
2022/05/09 08:58:39;;;;;;;23.23;8.38;;;;;;;14.16;100.00;101181.34;5073990;28;20059;-83
2022/05/09 09:01:22;;;;;;;20.20;8.73;;;;;;;13.95;100.00;101193.69;5073621;28;20080;-83
2022/05/09 09:04:04;;;;;;;19.33;8.07;;;;;;;14.41;100.00;101188.97;5074096;28;20049;-83
2022/05/09 09:06:31;;;;;;;18.97;8.40;;;;;;;14.56;100.00;101184.78;5073632;28;20090;-83
2022/05/09 09:09:16;;;;;;;21.63;7.25;;;;;;;14.48;100.00;101168.47;5072471;28;20282;-83
2022/05/09 09:12:07;;;;;;;32.42;9.18;;;;;;;14.67;100.00;101166.69;5072456;28;20044;-83
2022/05/09 09:14:55;;;;;;;20.90;8.25;;;;;;;14.53;100.00;101140.13;5072413;28;20426;-83
2022/05/09 09:17:28;;;;;;;18.27;7.60;;;;;;;14.18;100.00;101163.69;5072721;28;20048;-83
2022/05/09 09:20:12;;;;;;;21.35;7.97;;;;;;;14.56;100.00;101168.97;5073979;28;20048;-83
2022/05/09 09:23:01;;;;;;;21.40;7.95;;;;;;;14.50;100.00;101166.59;5073558;28;20048;-83
2022/05/09 09:25:37;;;;;;;23.38;8.32;;;;;;;14.95;100.00;101153.03;5072394;28;20052;-83
2022/05/09 09:28:13;;;;;;;22.25;8.80;;;;;;;14.34;100.00;101161.19;5073633;28;20055;-83
2022/05/09 09:30:43;;;;;;;22.08;9.32;;;;;;;13.97;100.00;101147.09;5071188;28;20056;-83
2022/05/09 09:33:13;;;;;;;27.13;10.50;;;;;;;13.95;100.00;101146.31;5073817;28;20056;-83
2022/05/09 09:35:42;;;;;;;28.05;9.43;;;;;;;13.86;100.00;101150.19;5072864;28;20051;-83
2022/05/09 09:38:45;;;;;;;25.10;10.95;;;;;;;13.87;100.00;101154.56;5072207;28;20052;-83
2022/05/09 09:41:21;;;;;;;29.02;10.15;;;;;;;14.17;100.00;101159.38;5071568;28;20041;-83
2022/05/09 09:43:49;;;;;;;22.23;9.45;;;;;;;14.30;100.00;101160.50;5072112;28;20049;-83
2022/05/09 09:46:16;;;;;;;22.73;10.90;;;;;;;13.49;100.00;101109.72;5072073;28;20401;-83
2022/05/09 09:48:43;;;;;;;17.80;8.60;;;;;;;14.23;100.00;101127.47;5073046;28;20056;-83
2022/05/09 09:51:19;;;;;;;22.33;9.25;;;;;;;14.10;100.00;101128.97;5067975;28;20041;-83
2022/05/09 09:53:56;;;;;;;27.38;10.82;;;;;;;13.85;100.00;101154.63;5052783;28;20538;-83
2022/05/09 09:56:22;;;;;;;22.60;9.75;;;;;;;14.13;100.00;101157.78;5057020;28;20082;-83
2022/05/09 09:58:57;;;;;;;24.52;10.65;;;;;;;13.66;100.00;101106.38;5073033;28;20078;-83
2022/05/09 10:01:32;;;;;;;21.33;8.35;;;;;;;14.22;100.00;101144.22;5071387;28;20053;-82
2022/05/09 10:04:23;;;;;;;20.92;8.75;;;;;;;14.34;100.00;101127.84;5072095;28;20478;-82
2022/05/09 10:07:04;;;;;;;31.80;11.05;;;;;;;14.02;100.00;101138.09;5071341;28;20052;-82
2022/05/09 10:09:39;;;;;;;23.83;10.38;;;;;;;14.14;100.00;101133.16;5072915;28;20602;-82
2022/05/09 10:12:22;;;;;;;27.95;10.77;;;;;;;13.81;100.00;101126.75;5069346;28;20048;-82
2022/05/09 10:14:51;;;;;;;27.67;10.52;;;;;;;14.27;100.00;101128.16;5052649;28;20147;-83
2022/05/09 10:17:37;;;;;;;34.00;10.07;;;;;;;14.74;100.00;101128.56;5063797;28;20406;-83
2022/05/09 10:20:27;;;;;;;25.38;9.40;;;;;;;14.73;100.00;101124.25;5072349;28;20050;-83
2022/05/09 10:26:01;;;;;;;24.17;9.63;;;;;;;15.20;100.00;101077.97;5072900;28;20055;-83
2022/05/09 10:28:32;;;;;;;29.80;9.68;;;;;;;14.89;100.00;101084.81;5073137;28;20760;-82
2022/05/09 10:31:14;;;;;;;20.85;9.45;;;;;;;15.20;100.00;101048.94;5072734;28;20406;-82
2022/05/09 10:34:08;;;;;;;23.80;9.13;;;;;;;15.37;100.00;101080.56;5059988;28;20076;-82
2022/05/09 10:37:02;;;;;;;29.20;10.38;;;;;;;14.74;100.00;101020.50;5068287;28;20423;-83
2022/05/09 10:39:34;;;;;;;19.70;8.45;;;;;;;15.22;100.00;101055.00;5071129;28;20102;-83
2022/05/09 10:42:12;;;;;;;24.27;9.18;;;;;;;15.14;100.00;101009.72;5074030;28;20040;-83
2022/05/09 10:44:49;;;;;;;27.63;10.82;;;;;;;14.53;100.00;101029.47;5076615;28;20056;-83
2022/05/09 10:47:40;;;;;;;27.35;10.82;;;;;;;14.71;100.00;101044.38;5076157;28;20057;-82
2022/05/09 10:50:51;;;;;;;22.73;8.77;;;;;;;14.87;100.00;101046.25;5076050;28;20056;-82
2022/05/09 10:53:55;;;;;;;25.92;9.98;;;;;;;14.61;100.00;101038.72;4997531;28;20538;-83
2022/05/09 10:56:29;;;;;;;30.08;9.75;;;;;;;14.61;100.00;101006.25;4986240;28;20152;-83
2022/05/09 10:59:02;;;;;;;21.50;9.40;;;;;;;14.37;100.00;100984.56;5051649;28;20044;-83
2022/05/09 11:01:54;;;;;;;24.45;8.98;;;;;;;14.55;100.00;101024.97;5074709;28;20064;-83
2022/05/09 11:04:21;;;;;;;27.30;9.52;;;;;;;14.32;100.00;100963.72;5075962;28;20044;-83
2022/05/09 11:06:52;;;;;;;21.38;9.52;;;;;;;14.37;100.00;101024.09;5074673;28;20140;-83
2022/05/09 11:09:37;;;;;;;22.13;7.78;;;;;;;14.38;100.00;100987.13;5072685;28;20455;-83
2022/05/09 11:12:32;;;;;;;24.65;8.65;;;;;;;14.29;100.00;101005.16;5055601;28;20049;-83
2022/05/09 11:15:24;;;;;;;20.65;9.30;;;;;;;14.13;100.00;100995.41;5093537;28;20441;-83
2022/05/09 11:18:26;;;;;;;31.17;10.85;;;;;;;13.66;100.00;100959.03;5075850;28;20063;-83
2022/05/09 11:21:02;;;;;;;26.38;10.57;;;;;;;13.45;100.00;100997.69;5075977;28;20393;-83
2022/05/09 11:23:34;;;;;;;30.98;11.43;;;;;;;14.04;100.00;100988.78;5076018;28;20098;-83
2022/05/09 11:26:22;;;;;;;27.08;10.23;;;;;;;13.94;100.00;100937.50;5068065;28;20045;-83
2022/05/09 11:28:48;;;;;;;33.25;10.82;;;;;;;14.04;100.00;100957.19;5054134;28;20056;-83
2022/05/09 11:31:34;;;;;;;25.77;10.23;;;;;;;14.15;100.00;100958.47;5061259;28;20135;-83
2022/05/09 11:34:26;;;;;;;23.65;10.05;;;;;;;14.03;100.00;100946.75;5072781;28;20136;-83
2022/05/09 11:37:12;;;;;;;22.95;9.82;;;;;;;14.36;100.00;100961.78;5055552;28;20044;-83
2022/05/09 11:39:44;;;;;;;23.60;9.75;;;;;;;14.57;100.00;100976.53;5087632;28;20057;-82